createdAt,value
2017-12-01T00:01:21.486Z,20.30
2017-12-01T00:03:50.557Z,21.50
2017-12-01T00:06:18.893Z,22.50
2017-12-01T00:08:47.207Z,20.43
2017-12-01T00:11:15.578Z,18.70
2017-12-01T00:13:43.889Z,20.10
2017-12-01T00:16:12.947Z,19.87
2017-12-01T00:18:41.970Z,17.00
2017-12-01T00:21:10.310Z,15.47
2017-12-01T00:23:38.616Z,14.93
2017-12-01T00:26:06.926Z,15.87
2017-12-01T00:28:36.037Z,16.60
2017-12-01T00:31:05.119Z,21.03
2017-12-01T00:33:33.434Z,16.47
2017-12-01T00:36:02.521Z,17.03
2017-12-01T00:38:31.609Z,18.27
2017-12-01T00:41:00.773Z,19.90
2017-12-01T00:43:29.083Z,18.73
2017-12-01T00:45:57.413Z,15.37
2017-12-01T00:48:25.767Z,19.30
2017-12-01T00:50:54.846Z,19.63
2017-12-01T00:53:24.675Z,17.83
2017-12-01T00:55:53.756Z,17.43
2017-12-01T00:58:22.069Z,20.60
2017-12-01T01:00:50.372Z,19.23
2017-12-01T01:03:18.703Z,16.97
2017-12-01T01:05:47.827Z,20.63
2017-12-01T01:08:16.910Z,18.47
2017-12-01T01:10:46.004Z,23.83
2017-12-01T01:13:15.092Z,23.70
2017-12-01T01:15:43.417Z,27.37
2017-12-01T01:18:11.751Z,29.93
2017-12-01T01:20:40.053Z,27.90
2017-12-01T01:23:09.145Z,31.53
2017-12-01T01:25:37.503Z,30.03
2017-12-01T01:28:05.851Z,28.17
2017-12-01T01:30:34.170Z,29.90
2017-12-01T01:33:03.402Z,32.57
2017-12-01T01:35:32.474Z,32.37
2017-12-01T01:38:01.509Z,32.23
2017-12-01T01:40:30.591Z,30.77
2017-12-01T01:42:59.672Z,29.07
2017-12-01T01:45:27.983Z,30.03
2017-12-01T01:47:57.081Z,32.20
2017-12-01T01:50:26.348Z,31.43
2017-12-01T01:52:54.666Z,34.30
2017-12-01T01:55:23.751Z,36.30
2017-12-01T01:57:52.834Z,29.07
2017-12-01T02:00:21.172Z,31.67
2017-12-01T02:02:49.485Z,37.70
2017-12-01T02:05:17.910Z,37.30
2017-12-01T02:07:47.000Z,34.00
2017-12-01T02:10:16.104Z,40.23
2017-12-01T02:12:45.646Z,46.90
2017-12-01T02:15:13.954Z,34.40
2017-12-01T02:17:42.268Z,33.13
2017-12-01T02:20:10.570Z,32.17
2017-12-01T02:22:39.066Z,38.13
2017-12-01T02:25:07.410Z,36.57
2017-12-01T02:27:36.518Z,43.10
2017-12-01T02:30:05.593Z,44.30
2017-12-01T02:32:33.911Z,49.93
2017-12-01T02:35:02.257Z,44.63
2017-12-01T02:37:30.593Z,55.70
2017-12-01T02:39:58.923Z,57.00
2017-12-01T02:42:27.240Z,48.20
2017-12-01T02:44:55.555Z,51.47
2017-12-01T02:47:23.879Z,44.77
2017-12-01T02:49:52.212Z,45.37
2017-12-01T02:52:20.521Z,63.93
2017-12-01T02:54:52.435Z,44.33
2017-12-01T02:57:20.748Z,41.20
2017-12-01T02:59:49.116Z,41.70
2017-12-01T03:02:17.426Z,47.67
2017-12-01T03:04:45.734Z,41.73
2017-12-01T03:07:14.802Z,35.93
2017-12-01T03:09:43.118Z,39.87
2017-12-01T03:12:12.194Z,36.50
2017-12-01T03:14:40.522Z,43.63
2017-12-01T03:17:09.614Z,42.70
2017-12-01T03:19:37.954Z,36.03
2017-12-01T03:22:06.272Z,37.23
2017-12-01T03:24:35.344Z,35.07
2017-12-01T03:27:04.506Z,37.20
2017-12-01T03:29:32.812Z,39.13
2017-12-01T03:32:01.120Z,34.63
2017-12-01T03:34:30.211Z,32.03
2017-12-01T03:36:59.308Z,38.20
2017-12-01T03:39:28.400Z,41.47
2017-12-01T03:41:56.698Z,36.37
2017-12-01T03:44:25.762Z,34.07
2017-12-01T03:46:54.070Z,35.60
2017-12-01T03:49:23.169Z,40.80
2017-12-01T03:51:52.240Z,37.00
2017-12-01T03:54:20.534Z,38.43
2017-12-01T03:56:48.866Z,42.60
2017-12-01T03:59:17.180Z,37.37
2017-12-01T04:01:45.628Z,34.67
2017-12-01T04:04:13.942Z,40.17
2017-12-01T04:06:42.255Z,37.90
2017-12-01T04:09:11.344Z,40.30
2017-12-01T04:11:40.487Z,37.43
2017-12-01T04:14:08.822Z,42.70
2017-12-01T04:16:37.124Z,40.03
2017-12-01T04:19:06.205Z,44.17
2017-12-01T04:21:35.290Z,45.50
2017-12-01T04:24:03.596Z,54.43
2017-12-01T04:26:32.682Z,46.17
2017-12-01T04:29:01.786Z,49.00
2017-12-01T04:31:30.902Z,52.47
2017-12-01T04:34:00.026Z,51.10
2017-12-01T04:36:28.339Z,54.00
2017-12-01T04:38:56.676Z,47.50
2017-12-01T04:41:25.651Z,57.60
2017-12-01T04:43:54.711Z,47.90
2017-12-01T04:46:23.011Z,51.40
2017-12-01T04:48:51.339Z,54.33
2017-12-01T04:51:19.719Z,53.17
2017-12-01T04:53:48.028Z,54.23
2017-12-01T04:56:16.356Z,50.10
2017-12-01T04:58:45.422Z,53.63
2017-12-01T05:01:13.736Z,48.93
2017-12-01T05:03:42.814Z,46.00
2017-12-01T05:06:11.940Z,49.27
2017-12-01T05:08:41.026Z,46.80
2017-12-01T05:11:10.360Z,48.30
2017-12-01T05:13:38.682Z,50.27
2017-12-01T05:16:06.998Z,53.30
2017-12-01T05:18:36.116Z,52.67
2017-12-01T05:21:04.422Z,52.70
2017-12-01T05:23:32.748Z,49.77
2017-12-01T05:26:01.064Z,56.47
2017-12-01T05:28:29.377Z,46.80
2017-12-01T05:30:57.694Z,47.87
2017-12-01T05:33:26.768Z,41.53
2017-12-01T05:35:55.070Z,42.50
2017-12-01T05:38:23.411Z,41.00
2017-12-01T05:40:51.837Z,41.70
2017-12-01T05:43:20.954Z,34.97
2017-12-01T05:45:49.262Z,41.67
2017-12-01T05:48:17.578Z,39.70
2017-12-01T05:50:45.892Z,49.00
2017-12-01T05:53:14.213Z,49.77
2017-12-01T05:55:42.564Z,53.33
2017-12-01T05:58:10.872Z,34.07
2017-12-01T06:00:39.196Z,48.93
2017-12-01T06:03:08.292Z,49.03
2017-12-01T06:05:38.338Z,34.03
2017-12-01T06:08:06.646Z,39.80
2017-12-01T06:10:34.942Z,41.90
2017-12-01T06:13:03.304Z,43.13
2017-12-01T06:15:31.602Z,34.57
2017-12-01T06:18:00.014Z,36.47
2017-12-01T06:20:29.105Z,37.00
2017-12-01T06:22:57.435Z,35.63
2017-12-01T06:25:25.754Z,36.70
2017-12-01T06:27:55.572Z,43.97
2017-12-01T06:30:23.945Z,37.90
2017-12-01T06:32:52.274Z,30.73
2017-12-01T06:35:21.339Z,33.87
2017-12-01T06:37:49.645Z,40.33
2017-12-01T06:40:18.723Z,28.60
2017-12-01T06:42:47.791Z,48.87
2017-12-01T06:45:16.117Z,42.67
2017-12-01T06:47:45.201Z,44.20
2017-12-01T06:50:14.477Z,42.07
2017-12-01T06:52:42.808Z,47.37
2017-12-01T06:55:11.888Z,40.10
2017-12-01T06:57:40.210Z,39.23
2017-12-01T07:00:08.544Z,47.67
2017-12-01T07:02:39.168Z,28.70
2017-12-01T07:05:07.471Z,57.40
2017-12-01T07:07:36.663Z,44.03
2017-12-01T07:10:05.864Z,41.20
2017-12-01T07:12:34.197Z,37.47
2017-12-01T07:15:02.504Z,43.77
2017-12-01T07:17:30.806Z,54.23
2017-12-01T07:19:59.127Z,40.30
2017-12-01T07:22:27.430Z,41.40
2017-12-01T07:24:55.798Z,45.03
2017-12-01T07:27:24.109Z,38.10
2017-12-01T07:29:52.448Z,43.27
2017-12-01T07:32:20.786Z,43.17
2017-12-01T07:34:49.191Z,41.87
2017-12-01T07:37:18.421Z,33.00
2017-12-01T07:39:46.771Z,48.00
2017-12-01T07:42:15.860Z,46.43
2017-12-01T07:44:48.931Z,47.70
2017-12-01T07:47:17.349Z,42.13
2017-12-01T07:49:46.411Z,47.37
2017-12-01T07:52:14.916Z,53.23
2017-12-01T07:54:43.993Z,45.30
2017-12-01T07:57:12.345Z,48.60
2017-12-01T07:59:40.668Z,51.43
2017-12-01T08:02:09.743Z,44.50
2017-12-01T08:04:38.071Z,53.43
2017-12-01T08:07:06.391Z,52.67
2017-12-01T08:09:34.699Z,53.17
2017-12-01T08:12:03.017Z,45.23
2017-12-01T08:14:32.175Z,45.37
2017-12-01T08:17:18.371Z,47.97
2017-12-01T08:19:46.691Z,45.43
2017-12-01T08:22:32.873Z,51.93
2017-12-01T08:25:23.806Z,42.00
2017-12-01T08:27:52.125Z,51.30
2017-12-01T08:30:21.243Z,43.53
2017-12-01T08:32:49.609Z,51.60
2017-12-01T08:35:17.927Z,48.63
2017-12-01T08:37:46.310Z,42.53
2017-12-01T08:40:15.369Z,51.70
2017-12-01T08:42:45.181Z,55.03
2017-12-01T08:45:13.527Z,60.97
2017-12-01T08:47:41.858Z,61.80
2017-12-01T08:50:10.933Z,53.77
2017-12-01T08:52:39.264Z,51.27
2017-12-01T08:55:07.566Z,57.00
2017-12-01T08:57:35.867Z,60.63
2017-12-01T09:00:04.163Z,55.50
2017-12-01T09:02:32.495Z,57.30
2017-12-01T09:05:00.805Z,55.23
2017-12-01T09:07:29.149Z,66.07
2017-12-01T09:09:57.480Z,51.47
2017-12-01T09:12:27.506Z,56.23
2017-12-01T09:14:55.813Z,50.07
2017-12-01T09:17:24.133Z,51.27
2017-12-01T09:19:52.507Z,54.37
2017-12-01T09:22:21.599Z,38.53
2017-12-01T09:24:49.897Z,45.70
2017-12-01T09:27:18.461Z,45.10
2017-12-01T09:29:46.771Z,41.77
2017-12-01T09:32:15.109Z,48.70
2017-12-01T09:34:43.413Z,52.10
2017-12-01T09:37:11.743Z,53.43
2017-12-01T09:39:40.809Z,42.60
2017-12-01T09:42:09.129Z,51.03
2017-12-01T09:44:38.195Z,49.43
2017-12-01T09:47:07.224Z,49.80
2017-12-01T09:49:36.345Z,50.33
2017-12-01T09:52:04.831Z,51.63
2017-12-01T09:54:33.268Z,49.23
2017-12-01T09:57:03.100Z,56.43
2017-12-01T09:59:32.183Z,43.57
2017-12-01T10:02:01.269Z,50.40
2017-12-01T10:04:29.573Z,59.40
2017-12-01T10:06:57.915Z,49.10
2017-12-01T10:09:26.271Z,51.03
2017-12-01T10:11:54.585Z,57.17
2017-12-01T10:14:22.903Z,46.83
2017-12-01T10:16:51.990Z,52.67
2017-12-01T10:19:20.362Z,50.40
2017-12-01T10:21:49.431Z,49.47
2017-12-01T10:24:17.738Z,50.27
2017-12-01T10:26:46.079Z,49.00
2017-12-01T10:29:14.400Z,42.20
2017-12-01T10:31:42.715Z,45.20
2017-12-01T10:34:12.015Z,54.10
2017-12-01T10:36:41.109Z,42.00
2017-12-01T10:39:10.203Z,46.73
2017-12-01T10:41:38.512Z,44.17
2017-12-01T10:44:06.825Z,48.40
2017-12-01T10:46:35.139Z,41.63
2017-12-01T10:49:03.457Z,57.00
2017-12-01T10:51:31.763Z,45.73
2017-12-01T10:54:00.089Z,45.90
2017-12-01T10:56:29.185Z,53.13
2017-12-01T10:58:57.504Z,46.83
2017-12-01T11:01:25.841Z,40.67
2017-12-01T11:03:54.171Z,48.20
2017-12-01T11:06:22.475Z,38.77
2017-12-01T11:08:50.869Z,48.60
2017-12-01T11:11:19.184Z,49.00
2017-12-01T11:13:47.511Z,48.90
2017-12-01T11:16:15.809Z,44.33
2017-12-01T11:18:44.115Z,49.10
2017-12-01T11:21:12.431Z,52.37
2017-12-01T11:23:40.795Z,47.23
2017-12-01T11:26:09.856Z,38.33
2017-12-01T11:28:38.191Z,38.17
2017-12-01T11:31:06.511Z,46.60
2017-12-01T11:33:34.800Z,48.47
2017-12-01T11:36:03.882Z,49.17
2017-12-01T11:38:32.193Z,54.33
2017-12-01T11:41:00.515Z,45.87
2017-12-01T11:43:28.905Z,46.63
2017-12-01T11:45:57.215Z,44.97
2017-12-01T11:48:25.571Z,44.47
2017-12-01T11:50:53.865Z,47.50
2017-12-01T11:53:22.160Z,48.17
2017-12-01T11:55:50.639Z,43.83
2017-12-01T11:58:19.022Z,46.77
2017-12-01T12:00:48.238Z,49.77
2017-12-01T12:03:16.549Z,40.70
2017-12-01T12:05:44.867Z,46.70
2017-12-01T12:08:13.188Z,46.83
2017-12-01T12:10:41.515Z,51.70
2017-12-01T12:13:09.818Z,45.67
2017-12-01T12:15:38.159Z,39.90
2017-12-01T12:18:06.547Z,41.40
2017-12-01T12:20:34.843Z,43.97
2017-12-01T12:23:03.167Z,41.33
2017-12-01T12:25:32.268Z,35.73
2017-12-01T12:28:00.593Z,38.00
2017-12-01T12:30:28.897Z,43.17
2017-12-01T12:32:57.222Z,45.60
2017-12-01T12:35:26.303Z,48.00
2017-12-01T12:37:54.612Z,27.83
2017-12-01T12:40:23.685Z,43.87
2017-12-01T12:42:52.789Z,35.70
2017-12-01T12:45:21.105Z,46.80
2017-12-01T12:47:49.437Z,47.53
2017-12-01T12:50:18.567Z,36.57
2017-12-01T12:52:47.647Z,40.77
2017-12-01T12:55:16.106Z,39.47
2017-12-01T12:57:44.439Z,37.20
2017-12-01T13:00:12.886Z,42.63
2017-12-01T13:02:41.217Z,40.90
2017-12-01T13:05:09.534Z,43.23
2017-12-01T13:07:37.924Z,38.97
2017-12-01T13:10:06.233Z,42.83
2017-12-01T13:12:35.346Z,38.50
2017-12-01T13:15:03.639Z,45.70
2017-12-01T13:17:31.954Z,40.50
2017-12-01T13:20:01.045Z,34.37
2017-12-01T13:22:29.354Z,45.53
2017-12-01T13:24:58.436Z,91.07
2017-12-01T13:27:26.768Z,49.03
2017-12-01T13:29:55.858Z,44.90
2017-12-01T13:32:24.936Z,49.53
2017-12-01T13:34:53.266Z,53.27
2017-12-01T13:37:21.578Z,39.07
2017-12-01T13:39:49.889Z,43.90
2017-12-01T13:42:19.062Z,37.33
2017-12-01T13:44:47.358Z,43.37
2017-12-01T13:47:16.432Z,46.70
2017-12-01T13:49:44.736Z,49.20
2017-12-01T13:52:13.806Z,43.43
2017-12-01T13:54:42.136Z,40.40
2017-12-01T13:57:11.232Z,71.47
2017-12-01T13:59:40.412Z,35.97
2017-12-01T14:02:10.306Z,39.00
2017-12-01T14:04:38.668Z,33.10
2017-12-01T14:07:06.966Z,32.20
2017-12-01T14:09:35.290Z,35.43
2017-12-01T14:12:03.659Z,30.83
2017-12-01T14:14:31.966Z,30.00
2017-12-01T14:17:01.122Z,34.90
2017-12-01T14:19:30.272Z,29.27
2017-12-01T14:21:59.346Z,30.03
2017-12-01T14:24:27.681Z,29.50
2017-12-01T14:26:55.980Z,30.57
2017-12-01T14:29:24.299Z,29.33
2017-12-01T14:31:53.366Z,31.67
2017-12-01T14:34:22.462Z,30.83
2017-12-01T14:36:50.817Z,27.20
2017-12-01T14:39:19.122Z,26.37
2017-12-01T14:41:48.048Z,29.50
2017-12-01T14:44:16.364Z,27.23
2017-12-01T14:46:44.688Z,28.37
2017-12-01T14:49:13.010Z,23.40
2017-12-01T14:51:41.313Z,22.70
2017-12-01T14:54:09.661Z,26.47
2017-12-01T14:56:37.938Z,26.80
2017-12-01T14:59:07.096Z,26.37
2017-12-01T15:01:35.428Z,27.20
2017-12-01T15:04:03.784Z,26.17
2017-12-01T15:06:32.867Z,22.67
2017-12-01T15:09:01.195Z,29.13
2017-12-01T15:11:29.514Z,24.30
2017-12-01T15:13:57.832Z,23.53
2017-12-01T15:16:26.273Z,24.17
2017-12-01T15:18:55.434Z,24.13
2017-12-01T15:21:24.524Z,23.73
2017-12-01T15:23:53.609Z,28.17
2017-12-01T15:26:21.934Z,23.70
2017-12-01T15:28:50.249Z,23.37
2017-12-01T15:31:18.561Z,29.10
2017-12-01T15:33:46.870Z,24.80
2017-12-01T15:36:15.172Z,27.40
2017-12-01T15:38:43.482Z,28.23
2017-12-01T15:41:11.776Z,26.80
2017-12-01T15:43:40.104Z,22.97
2017-12-01T15:46:08.790Z,26.10
2017-12-01T15:48:41.695Z,26.30
2017-12-01T15:51:10.072Z,24.67
2017-12-01T15:53:38.388Z,28.57
2017-12-01T15:56:06.704Z,27.07
2017-12-01T15:58:35.027Z,34.07
2017-12-01T16:01:03.489Z,28.83
2017-12-01T16:03:31.795Z,24.00
2017-12-01T16:06:00.114Z,23.93
2017-12-01T16:08:29.191Z,23.97
2017-12-01T16:10:57.536Z,24.37
2017-12-01T16:13:25.848Z,22.57
2017-12-01T16:15:54.159Z,21.97
2017-12-01T16:18:23.254Z,17.30
2017-12-01T16:20:52.321Z,21.30
2017-12-01T16:23:20.626Z,19.90
2017-12-01T16:25:48.948Z,17.43
2017-12-01T16:28:18.019Z,17.87
2017-12-01T16:30:47.110Z,19.97
2017-12-01T16:33:16.192Z,20.10
2017-12-01T16:35:44.515Z,25.53
2017-12-01T16:38:13.134Z,20.40
2017-12-01T16:40:41.459Z,29.47
2017-12-01T16:43:10.556Z,24.00
2017-12-01T16:45:39.646Z,31.03
2017-12-01T16:48:08.759Z,26.47
2017-12-01T16:50:37.055Z,18.63
2017-12-01T16:53:05.382Z,22.17
2017-12-01T16:55:33.700Z,29.20
2017-12-01T16:58:02.816Z,29.50
2017-12-01T17:00:31.187Z,32.07
2017-12-01T17:03:00.664Z,33.13
2017-12-01T17:05:30.044Z,30.80
2017-12-01T17:07:58.505Z,26.50
2017-12-01T17:10:27.035Z,24.00
2017-12-01T17:12:55.338Z,21.90
2017-12-01T17:15:24.399Z,20.33
2017-12-01T17:17:53.586Z,17.40
2017-12-01T17:20:21.895Z,24.63
2017-12-01T17:22:50.401Z,23.77
2017-12-01T17:25:19.553Z,19.73
2017-12-01T17:27:47.890Z,20.90
2017-12-01T17:30:17.001Z,22.77
2017-12-01T17:32:45.319Z,18.20
2017-12-01T17:35:13.660Z,17.83
2017-12-01T17:37:41.999Z,18.70
2017-12-01T17:40:10.299Z,18.10
2017-12-01T17:42:39.389Z,16.13
2017-12-01T17:45:09.152Z,18.23
2017-12-01T17:47:37.493Z,16.43
2017-12-01T17:50:06.577Z,15.90
2017-12-01T17:52:34.907Z,15.80
2017-12-01T17:55:03.223Z,36.63
2017-12-01T17:57:31.521Z,17.73
2017-12-01T18:00:00.584Z,15.70
2017-12-01T18:02:28.903Z,14.60
2017-12-01T18:04:57.217Z,18.50
2017-12-01T18:07:25.529Z,39.37
2017-12-01T18:09:53.861Z,35.00
2017-12-01T18:12:22.932Z,26.50
2017-12-01T18:14:51.246Z,22.10
2017-12-01T18:17:20.315Z,17.93
2017-12-01T18:19:48.611Z,9.90
2017-12-01T18:22:18.425Z,12.03
2017-12-01T18:24:46.745Z,25.50
2017-12-01T18:27:17.077Z,28.57
2017-12-01T18:29:45.462Z,36.13
2017-12-01T18:32:13.769Z,59.10
2017-12-01T18:34:42.184Z,59.67
2017-12-01T18:37:11.261Z,47.30
2017-12-01T18:39:42.698Z,48.40
2017-12-01T18:42:11.797Z,45.50
2017-12-01T18:44:40.137Z,27.13
2017-12-01T18:47:10.068Z,24.10
2017-12-01T18:49:38.367Z,17.97
2017-12-01T18:52:06.682Z,15.67
2017-12-01T18:54:35.624Z,15.77
2017-12-01T18:57:03.925Z,14.40
2017-12-01T18:59:33.306Z,13.60
2017-12-01T19:02:02.234Z,13.07
2017-12-01T19:04:30.637Z,22.17
2017-12-01T19:07:00.018Z,31.63
2017-12-01T19:09:29.627Z,57.40
2017-12-01T19:11:58.121Z,49.73
2017-12-01T19:14:26.417Z,94.33
2017-12-01T19:16:56.627Z,60.57
2017-12-01T19:19:26.028Z,41.53
2017-12-01T19:21:55.185Z,32.03
2017-12-01T19:24:23.981Z,22.63
2017-12-01T19:26:52.379Z,18.17
2017-12-01T19:29:20.925Z,16.53
2017-12-01T19:31:51.166Z,22.63
2017-12-01T19:34:19.535Z,13.03
2017-12-01T19:36:49.340Z,13.77
2017-12-01T19:39:19.433Z,15.60
2017-12-01T19:41:47.817Z,13.63
2017-12-01T19:44:16.249Z,14.60
2017-12-01T19:46:45.371Z,18.93
2017-12-01T19:49:14.443Z,16.03
2017-12-01T19:51:43.515Z,13.40
2017-12-01T19:54:11.837Z,16.53
2017-12-01T19:59:10.437Z,18.07
2017-12-01T20:01:39.538Z,16.90
2017-12-01T20:04:08.597Z,17.70
2017-12-01T20:06:36.945Z,24.53
2017-12-01T20:09:05.398Z,20.17
2017-12-01T20:11:33.749Z,24.13
2017-12-01T20:14:02.867Z,18.73
2017-12-01T20:16:36.753Z,23.20
2017-12-01T20:19:05.227Z,23.23
2017-12-01T20:21:33.533Z,22.73
2017-12-01T20:24:02.603Z,28.60
2017-12-01T20:26:30.935Z,24.33
2017-12-01T20:28:59.253Z,22.50
2017-12-01T20:31:27.567Z,22.63
2017-12-01T20:33:55.859Z,24.03
2017-12-01T20:36:24.971Z,21.87
2017-12-01T20:38:54.099Z,20.93
2017-12-01T20:41:22.397Z,29.63
2017-12-01T20:43:51.082Z,18.73
2017-12-01T20:46:19.391Z,19.97
2017-12-01T20:48:47.712Z,17.00
2017-12-01T20:51:16.039Z,20.33
2017-12-01T20:53:44.377Z,13.90
2017-12-01T20:56:12.672Z,14.00
2017-12-01T20:58:41.001Z,14.90
2017-12-01T21:01:10.097Z,14.03
2017-12-01T21:03:38.655Z,16.30
2017-12-01T21:06:06.974Z,14.53
2017-12-01T21:08:35.320Z,13.30
2017-12-01T21:11:03.640Z,17.40
2017-12-01T21:13:31.965Z,15.00
2017-12-01T21:16:00.270Z,14.20
2017-12-01T21:18:28.629Z,12.77
2017-12-01T21:20:56.943Z,15.97
2017-12-01T21:23:25.254Z,17.50
2017-12-01T21:25:54.344Z,15.07
2017-12-01T21:28:23.432Z,17.60
2017-12-01T21:30:51.916Z,15.73
2017-12-01T21:33:20.265Z,15.93
2017-12-01T21:35:48.657Z,14.30
2017-12-01T21:38:16.985Z,15.57
2017-12-01T21:40:46.071Z,14.53
2017-12-01T21:43:15.158Z,16.63
2017-12-01T21:45:43.488Z,19.50
2017-12-01T21:48:11.823Z,21.33
2017-12-01T21:50:40.157Z,16.60
2017-12-01T21:53:08.487Z,16.47
2017-12-01T21:55:36.803Z,18.43
2017-12-01T21:58:05.114Z,14.20
2017-12-01T22:00:33.421Z,16.23
2017-12-01T22:03:02.541Z,16.63
2017-12-01T22:05:31.623Z,15.07
2017-12-01T22:07:59.959Z,17.27
2017-12-01T22:10:28.275Z,16.70
2017-12-01T22:12:56.581Z,15.30
2017-12-01T22:15:25.695Z,16.37
2017-12-01T22:17:54.761Z,19.03
2017-12-01T22:20:23.096Z,20.70
2017-12-01T22:22:51.454Z,17.20
2017-12-01T22:25:19.785Z,18.80
2017-12-01T22:27:48.139Z,18.20
2017-12-01T22:30:16.464Z,18.83
2017-12-01T22:32:45.437Z,18.57
2017-12-01T22:35:13.740Z,18.23
2017-12-01T22:37:42.051Z,22.17
2017-12-01T22:40:11.975Z,17.40
2017-12-01T22:42:41.245Z,22.83
2017-12-01T22:45:09.561Z,18.20
2017-12-01T22:47:37.877Z,19.97
2017-12-01T22:50:06.223Z,19.00
2017-12-01T22:52:35.305Z,16.00
2017-12-01T22:55:04.389Z,19.27
2017-12-01T22:57:32.699Z,19.00
2017-12-01T23:00:01.027Z,20.37
2017-12-01T23:02:29.320Z,18.27
2017-12-01T23:04:57.639Z,15.07
2017-12-01T23:07:26.729Z,17.10
2017-12-01T23:09:55.116Z,20.23
2017-12-01T23:12:24.188Z,19.50
2017-12-01T23:14:52.504Z,17.70
2017-12-01T23:17:21.594Z,19.17
2017-12-01T23:19:50.663Z,17.13
2017-12-01T23:22:19.007Z,14.60
2017-12-01T23:24:47.390Z,21.40
2017-12-01T23:27:15.716Z,17.60
2017-12-01T23:29:44.047Z,17.90
2017-12-01T23:32:12.512Z,15.10
2017-12-01T23:34:41.589Z,17.77
2017-12-01T23:37:09.886Z,16.93
2017-12-01T23:39:38.963Z,20.00
2017-12-01T23:42:07.287Z,18.23
2017-12-01T23:44:35.607Z,17.00
2017-12-01T23:47:03.939Z,17.43
2017-12-01T23:49:33.018Z,18.60
2017-12-01T23:52:01.343Z,19.60
2017-12-01T23:54:29.682Z,21.07
2017-12-01T23:56:58.763Z,18.33
2017-12-01T23:59:27.098Z,18.10
